Cloverdale, Oregon
Current Conditions -  °F | °C
As of 12:55 PM on Sunday 23 Nov 2014 (Local Time) from KTMK Reporting Station
Light Rain Light Rain  
Wind Chill: 55°   Ceiling: 5500
Heat Index: 55°   Visibility: 7mi
Dew Point: 50°   Wind: 17mph
Humidity: 82%   Direction: 230°SW
Pressure: 30.26"   Gusts: 35mph
Location:  45.21°N, 123.89°W
Report Text: KTMK 232055Z AUTO 23015G30KT 7SM -RA SCT045 BKN055 OVC065 13/10 A3026 RMK AO2
Loading
Personal Weather Stations






























Interactive Weather Map New forecast layout! Learn more

10-Day Weather Forecast

Advertisements
Track Severe Weather on mobile